sensor_id;sensor_type;location;lat;lon;timestamp;P1;durP1;ratioP1;P2;durP2;ratioP2
8663;SDS011;4369;47.842;13.096;2023-08-24T00:00:21;12.70;;;9.63;;
8663;SDS011;4369;47.842;13.096;2023-08-24T00:02:49;12.17;;;9.57;;
8663;SDS011;4369;47.842;13.096;2023-08-24T00:05:16;11.97;;;10.73;;
8663;SDS011;4369;47.842;13.096;2023-08-24T00:07:43;11.77;;;10.27;;
8663;SDS011;4369;47.842;13.096;2023-08-24T00:10:10;10.87;;;9.77;;
8663;SDS011;4369;47.842;13.096;2023-08-24T00:12:37;11.50;;;9.90;;
8663;SDS011;4369;47.842;13.096;2023-08-24T00:15:07;12.10;;;9.77;;
8663;SDS011;4369;47.842;13.096;2023-08-24T00:17:35;11.17;;;10.00;;
8663;SDS011;4369;47.842;13.096;2023-08-24T00:20:04;10.60;;;9.70;;
8663;SDS011;4369;47.842;13.096;2023-08-24T00:22:36;13.10;;;9.33;;
8663;SDS011;4369;47.842;13.096;2023-08-24T00:25:03;11.27;;;10.10;;
8663;SDS011;4369;47.842;13.096;2023-08-24T00:27:32;13.17;;;10.63;;
8663;SDS011;4369;47.842;13.096;2023-08-24T00:29:59;11.17;;;10.07;;
8663;SDS011;4369;47.842;13.096;2023-08-24T00:32:26;10.97;;;9.83;;
8663;SDS011;4369;47.842;13.096;2023-08-24T00:34:53;12.43;;;11.13;;
8663;SDS011;4369;47.842;13.096;2023-08-24T00:37:21;12.27;;;11.07;;
8663;SDS011;4369;47.842;13.096;2023-08-24T00:39:48;11.33;;;10.23;;
8663;SDS011;4369;47.842;13.096;2023-08-24T00:42:15;11.60;;;10.17;;
8663;SDS011;4369;47.842;13.096;2023-08-24T00:44:42;14.63;;;11.13;;
8663;SDS011;4369;47.842;13.096;2023-08-24T00:47:09;12.80;;;11.50;;
8663;SDS011;4369;47.842;13.096;2023-08-24T00:49:36;13.43;;;10.97;;
8663;SDS011;4369;47.842;13.096;2023-08-24T00:52:03;16.60;;;12.50;;
8663;SDS011;4369;47.842;13.096;2023-08-24T00:54:32;13.27;;;11.00;;
8663;SDS011;4369;47.842;13.096;2023-08-24T00:56:59;11.93;;;10.83;;
8663;SDS011;4369;47.842;13.096;2023-08-24T00:59:26;12.23;;;11.13;;
8663;SDS011;4369;47.842;13.096;2023-08-24T01:01:53;12.17;;;10.80;;
8663;SDS011;4369;47.842;13.096;2023-08-24T01:04:21;13.47;;;10.83;;
8663;SDS011;4369;47.842;13.096;2023-08-24T01:06:49;12.27;;;11.23;;
8663;SDS011;4369;47.842;13.096;2023-08-24T01:09:16;15.13;;;12.63;;
8663;SDS011;4369;47.842;13.096;2023-08-24T01:11:50;12.90;;;11.60;;
8663;SDS011;4369;47.842;13.096;2023-08-24T01:14:28;12.47;;;11.27;;
8663;SDS011;4369;47.842;13.096;2023-08-24T01:17:04;12.57;;;11.27;;
8663;SDS011;4369;47.842;13.096;2023-08-24T01:19:37;14.73;;;12.53;;
8663;SDS011;4369;47.842;13.096;2023-08-24T01:22:07;13.70;;;12.40;;
8663;SDS011;4369;47.842;13.096;2023-08-24T01:24:47;13.97;;;11.93;;
8663;SDS011;4369;47.842;13.096;2023-08-24T01:27:26;13.47;;;12.17;;
8663;SDS011;4369;47.842;13.096;2023-08-24T01:29:55;14.47;;;11.83;;
8663;SDS011;4369;47.842;13.096;2023-08-24T01:32:23;13.00;;;11.67;;
8663;SDS011;4369;47.842;13.096;2023-08-24T01:34:50;13.33;;;11.90;;
8663;SDS011;4369;47.842;13.096;2023-08-24T01:37:18;12.83;;;11.43;;
8663;SDS011;4369;47.842;13.096;2023-08-24T01:39:46;13.50;;;11.53;;
8663;SDS011;4369;47.842;13.096;2023-08-24T01:42:20;12.40;;;11.20;;
8663;SDS011;4369;47.842;13.096;2023-08-24T01:44:49;11.77;;;10.57;;
8663;SDS011;4369;47.842;13.096;2023-08-24T01:47:19;13.60;;;12.20;;
8663;SDS011;4369;47.842;13.096;2023-08-24T01:49:47;12.43;;;10.93;;
8663;SDS011;4369;47.842;13.096;2023-08-24T01:52:14;13.90;;;11.67;;
8663;SDS011;4369;47.842;13.096;2023-08-24T01:54:42;12.27;;;11.00;;
8663;SDS011;4369;47.842;13.096;2023-08-24T01:57:10;13.17;;;11.77;;
8663;SDS011;4369;47.842;13.096;2023-08-24T01:59:36;14.20;;;12.07;;
8663;SDS011;4369;47.842;13.096;2023-08-24T02:02:05;12.87;;;11.50;;
8663;SDS011;4369;47.842;13.096;2023-08-24T02:04:32;11.67;;;10.57;;
8663;SDS011;4369;47.842;13.096;2023-08-24T02:06:59;12.43;;;11.13;;
8663;SDS011;4369;47.842;13.096;2023-08-24T02:09:26;13.33;;;11.23;;
8663;SDS011;4369;47.842;13.096;2023-08-24T02:11:53;14.17;;;12.50;;
8663;SDS011;4369;47.842;13.096;2023-08-24T02:14:20;12.90;;;11.67;;
8663;SDS011;4369;47.842;13.096;2023-08-24T02:16:46;12.10;;;10.80;;
8663;SDS011;4369;47.842;13.096;2023-08-24T02:19:15;13.50;;;12.13;;
8663;SDS011;4369;47.842;13.096;2023-08-24T02:21:42;12.87;;;11.57;;
8663;SDS011;4369;47.842;13.096;2023-08-24T02:24:09;12.83;;;11.60;;
8663;SDS011;4369;47.842;13.096;2023-08-24T02:26:36;14.17;;;12.30;;
8663;SDS011;4369;47.842;13.096;2023-08-24T02:29:03;12.27;;;11.00;;
8663;SDS011;4369;47.842;13.096;2023-08-24T02:31:30;15.27;;;11.53;;
8663;SDS011;4369;47.842;13.096;2023-08-24T02:33:57;12.13;;;10.83;;
8663;SDS011;4369;47.842;13.096;2023-08-24T02:36:25;14.33;;;12.30;;
8663;SDS011;4369;47.842;13.096;2023-08-24T02:38:52;13.33;;;11.97;;
8663;SDS011;4369;47.842;13.096;2023-08-24T02:41:19;13.67;;;11.97;;
8663;SDS011;4369;47.842;13.096;2023-08-24T02:43:46;14.37;;;11.63;;
8663;SDS011;4369;47.842;13.096;2023-08-24T02:46:13;13.27;;;11.77;;
8663;SDS011;4369;47.842;13.096;2023-08-24T02:48:40;15.23;;;11.47;;
8663;SDS011;4369;47.842;13.096;2023-08-24T02:51:07;13.47;;;12.03;;
8663;SDS011;4369;47.842;13.096;2023-08-24T02:53:36;13.50;;;11.50;;
8663;SDS011;4369;47.842;13.096;2023-08-24T02:56:03;13.57;;;12.37;;
8663;SDS011;4369;47.842;13.096;2023-08-24T02:58:30;12.57;;;11.03;;
8663;SDS011;4369;47.842;13.096;2023-08-24T03:00:57;12.87;;;11.30;;
8663;SDS011;4369;47.842;13.096;2023-08-24T03:03:24;14.10;;;11.90;;
8663;SDS011;4369;47.842;13.096;2023-08-24T03:05:52;15.00;;;13.00;;
8663;SDS011;4369;47.842;13.096;2023-08-24T03:08:20;13.93;;;12.13;;
8663;SDS011;4369;47.842;13.096;2023-08-24T03:10:48;14.27;;;11.73;;
8663;SDS011;4369;47.842;13.096;2023-08-24T03:13:15;12.70;;;11.40;;
8663;SDS011;4369;47.842;13.096;2023-08-24T03:15:42;12.57;;;11.30;;
8663;SDS011;4369;47.842;13.096;2023-08-24T03:18:10;13.63;;;12.20;;
8663;SDS011;4369;47.842;13.096;2023-08-24T03:20:38;14.33;;;12.83;;
8663;SDS011;4369;47.842;13.096;2023-08-24T03:23:05;14.87;;;13.30;;
8663;SDS011;4369;47.842;13.096;2023-08-24T03:25:35;13.93;;;12.53;;
8663;SDS011;4369;47.842;13.096;2023-08-24T03:28:04;14.27;;;12.77;;
8663;SDS011;4369;47.842;13.096;2023-08-24T03:30:32;13.93;;;12.37;;
8663;SDS011;4369;47.842;13.096;2023-08-24T03:32:59;14.97;;;12.90;;
8663;SDS011;4369;47.842;13.096;2023-08-24T03:35:27;13.87;;;12.57;;
8663;SDS011;4369;47.842;13.096;2023-08-24T03:37:54;13.87;;;12.47;;
8663;SDS011;4369;47.842;13.096;2023-08-24T03:40:21;13.97;;;12.53;;
8663;SDS011;4369;47.842;13.096;2023-08-24T03:42:48;14.70;;;12.23;;
8663;SDS011;4369;47.842;13.096;2023-08-24T03:45:17;13.57;;;12.27;;
8663;SDS011;4369;47.842;13.096;2023-08-24T03:47:44;14.27;;;12.88;;
8663;SDS011;4369;47.842;13.096;2023-08-24T03:50:10;13.40;;;11.83;;
8663;SDS011;4369;47.842;13.096;2023-08-24T03:52:37;13.07;;;11.73;;
8663;SDS011;4369;47.842;13.096;2023-08-24T03:55:05;13.20;;;11.80;;
8663;SDS011;4369;47.842;13.096;2023-08-24T03:57:32;13.67;;;12.23;;
8663;SDS011;4369;47.842;13.096;2023-08-24T03:59:59;13.70;;;12.30;;
8663;SDS011;4369;47.842;13.096;2023-08-24T04:02:28;14.07;;;11.53;;
8663;SDS011;4369;47.842;13.096;2023-08-24T04:04:55;13.00;;;11.60;;
8663;SDS011;4369;47.842;13.096;2023-08-24T04:07:21;14.13;;;12.73;;
8663;SDS011;4369;47.842;13.096;2023-08-24T04:09:48;14.40;;;12.80;;
8663;SDS011;4369;47.842;13.096;2023-08-24T04:12:15;13.50;;;12.20;;
8663;SDS011;4369;47.842;13.096;2023-08-24T04:14:42;12.97;;;11.67;;
8663;SDS011;4369;47.842;13.096;2023-08-24T04:17:09;18.20;;;12.83;;
8663;SDS011;4369;47.842;13.096;2023-08-24T04:19:38;13.20;;;11.90;;
8663;SDS011;4369;47.842;13.096;2023-08-24T04:22:05;15.37;;;12.07;;
8663;SDS011;4369;47.842;13.096;2023-08-24T04:24:32;14.50;;;12.27;;
8663;SDS011;4369;47.842;13.096;2023-08-24T04:26:59;14.53;;;12.30;;
8663;SDS011;4369;47.842;13.096;2023-08-24T04:29:26;15.13;;;12.40;;
8663;SDS011;4369;47.842;13.096;2023-08-24T04:31:53;13.47;;;12.07;;
8663;SDS011;4369;47.842;13.096;2023-08-24T04:34:20;15.20;;;12.47;;
8663;SDS011;4369;47.842;13.096;2023-08-24T04:36:48;13.10;;;11.80;;
8663;SDS011;4369;47.842;13.096;2023-08-24T04:39:15;12.50;;;11.40;;
8663;SDS011;4369;47.842;13.096;2023-08-24T04:41:43;12.13;;;10.93;;
8663;SDS011;4369;47.842;13.096;2023-08-24T04:44:10;13.87;;;12.43;;
8663;SDS011;4369;47.842;13.096;2023-08-24T04:46:37;13.73;;;12.50;;
8663;SDS011;4369;47.842;13.096;2023-08-24T04:49:04;13.37;;;11.40;;
8663;SDS011;4369;47.842;13.096;2023-08-24T04:51:31;13.77;;;12.33;;
8663;SDS011;4369;47.842;13.096;2023-08-24T04:53:59;13.00;;;11.30;;
8663;SDS011;4369;47.842;13.096;2023-08-24T04:56:27;13.67;;;12.27;;
8663;SDS011;4369;47.842;13.096;2023-08-24T04:58:54;13.67;;;11.53;;
8663;SDS011;4369;47.842;13.096;2023-08-24T05:01:22;12.67;;;11.40;;
8663;SDS011;4369;47.842;13.096;2023-08-24T05:03:50;13.17;;;11.97;;
8663;SDS011;4369;47.842;13.096;2023-08-24T05:06:17;14.57;;;11.87;;
8663;SDS011;4369;47.842;13.096;2023-08-24T05:08:44;15.53;;;12.77;;
8663;SDS011;4369;47.842;13.096;2023-08-24T05:11:13;15.23;;;12.13;;
8663;SDS011;4369;47.842;13.096;2023-08-24T05:13:40;13.83;;;12.20;;
8663;SDS011;4369;47.842;13.096;2023-08-24T05:16:07;12.13;;;11.03;;
8663;SDS011;4369;47.842;13.096;2023-08-24T05:18:35;13.90;;;12.50;;
8663;SDS011;4369;47.842;13.096;2023-08-24T05:21:02;13.27;;;11.90;;
8663;SDS011;4369;47.842;13.096;2023-08-24T05:23:29;14.20;;;12.80;;
8663;SDS011;4369;47.842;13.096;2023-08-24T05:25:56;13.57;;;12.00;;
8663;SDS011;4369;47.842;13.096;2023-08-24T05:28:24;13.80;;;12.47;;
8663;SDS011;4369;47.842;13.096;2023-08-24T05:30:51;14.17;;;12.77;;
8663;SDS011;4369;47.842;13.096;2023-08-24T05:33:19;16.70;;;12.60;;
8663;SDS011;4369;47.842;13.096;2023-08-24T05:35:46;14.13;;;12.53;;
8663;SDS011;4369;47.842;13.096;2023-08-24T05:38:14;17.73;;;13.80;;
8663;SDS011;4369;47.842;13.096;2023-08-24T05:40:46;14.03;;;11.80;;
8663;SDS011;4369;47.842;13.096;2023-08-24T05:43:14;17.30;;;12.67;;
8663;SDS011;4369;47.842;13.096;2023-08-24T05:45:42;14.03;;;12.20;;
8663;SDS011;4369;47.842;13.096;2023-08-24T05:48:09;14.33;;;13.03;;
8663;SDS011;4369;47.842;13.096;2023-08-24T05:50:36;15.27;;;12.17;;
8663;SDS011;4369;47.842;13.096;2023-08-24T05:53:03;14.47;;;13.00;;
8663;SDS011;4369;47.842;13.096;2023-08-24T05:55:30;14.80;;;13.43;;
8663;SDS011;4369;47.842;13.096;2023-08-24T05:57:57;16.27;;;13.17;;
8663;SDS011;4369;47.842;13.096;2023-08-24T06:00:24;14.90;;;13.20;;
8663;SDS011;4369;47.842;13.096;2023-08-24T06:02:52;15.57;;;13.03;;
8663;SDS011;4369;47.842;13.096;2023-08-24T06:05:19;15.90;;;13.63;;
8663;SDS011;4369;47.842;13.096;2023-08-24T06:07:46;13.93;;;12.63;;
8663;SDS011;4369;47.842;13.096;2023-08-24T06:10:14;14.70;;;13.10;;
8663;SDS011;4369;47.842;13.096;2023-08-24T06:12:41;14.20;;;12.80;;
8663;SDS011;4369;47.842;13.096;2023-08-24T06:15:08;13.83;;;11.90;;
8663;SDS011;4369;47.842;13.096;2023-08-24T06:17:37;12.53;;;11.37;;
8663;SDS011;4369;47.842;13.096;2023-08-24T06:20:06;14.80;;;13.27;;
8663;SDS011;4369;47.842;13.096;2023-08-24T06:22:36;17.10;;;13.33;;
8663;SDS011;4369;47.842;13.096;2023-08-24T06:25:03;14.80;;;13.30;;
8663;SDS011;4369;47.842;13.096;2023-08-24T06:27:33;14.17;;;12.77;;
8663;SDS011;4369;47.842;13.096;2023-08-24T06:30:01;13.67;;;12.23;;
8663;SDS011;4369;47.842;13.096;2023-08-24T06:32:28;13.43;;;12.03;;
8663;SDS011;4369;47.842;13.096;2023-08-24T06:34:55;15.57;;;12.60;;
8663;SDS011;4369;47.842;13.096;2023-08-24T06:37:23;12.87;;;11.67;;
8663;SDS011;4369;47.842;13.096;2023-08-24T06:39:50;13.43;;;11.53;;
8663;SDS011;4369;47.842;13.096;2023-08-24T06:42:17;15.07;;;11.43;;
8663;SDS011;4369;47.842;13.096;2023-08-24T06:44:44;14.40;;;12.83;;
8663;SDS011;4369;47.842;13.096;2023-08-24T06:47:13;16.73;;;13.57;;
8663;SDS011;4369;47.842;13.096;2023-08-24T06:49:40;15.07;;;13.53;;
8663;SDS011;4369;47.842;13.096;2023-08-24T06:52:07;14.10;;;12.57;;
8663;SDS011;4369;47.842;13.096;2023-08-24T06:54:36;13.27;;;12.00;;
8663;SDS011;4369;47.842;13.096;2023-08-24T06:57:03;14.70;;;13.13;;
8663;SDS011;4369;47.842;13.096;2023-08-24T06:59:30;15.07;;;12.67;;
8663;SDS011;4369;47.842;13.096;2023-08-24T07:01:56;16.43;;;13.17;;
8663;SDS011;4369;47.842;13.096;2023-08-24T07:04:24;16.90;;;12.80;;
8663;SDS011;4369;47.842;13.096;2023-08-24T07:06:51;13.00;;;11.67;;
8663;SDS011;4369;47.842;13.096;2023-08-24T07:09:18;13.53;;;12.07;;
8663;SDS011;4369;47.842;13.096;2023-08-24T07:11:47;13.13;;;11.83;;
8663;SDS011;4369;47.842;13.096;2023-08-24T07:14:14;17.00;;;12.83;;
8663;SDS011;4369;47.842;13.096;2023-08-24T07:16:41;14.13;;;12.37;;
8663;SDS011;4369;47.842;13.096;2023-08-24T07:19:08;12.63;;;11.40;;
8663;SDS011;4369;47.842;13.096;2023-08-24T07:21:35;13.90;;;12.33;;
8663;SDS011;4369;47.842;13.096;2023-08-24T07:24:03;12.23;;;11.13;;
8663;SDS011;4369;47.842;13.096;2023-08-24T07:26:30;13.73;;;11.80;;
8663;SDS011;4369;47.842;13.096;2023-08-24T07:28:58;13.30;;;11.90;;
8663;SDS011;4369;47.842;13.096;2023-08-24T07:31:25;13.73;;;11.67;;
8663;SDS011;4369;47.842;13.096;2023-08-24T07:33:52;13.33;;;11.87;;
8663;SDS011;4369;47.842;13.096;2023-08-24T07:36:19;13.23;;;11.50;;
8663;SDS011;4369;47.842;13.096;2023-08-24T07:38:46;12.30;;;10.93;;
8663;SDS011;4369;47.842;13.096;2023-08-24T07:41:13;13.57;;;11.30;;
8663;SDS011;4369;47.842;13.096;2023-08-24T07:43:42;15.63;;;12.53;;
8663;SDS011;4369;47.842;13.096;2023-08-24T07:46:11;13.10;;;11.87;;
8663;SDS011;4369;47.842;13.096;2023-08-24T07:48:38;13.63;;;11.67;;
8663;SDS011;4369;47.842;13.096;2023-08-24T07:51:05;13.93;;;12.27;;
8663;SDS011;4369;47.842;13.096;2023-08-24T07:53:33;13.17;;;11.90;;
8663;SDS011;4369;47.842;13.096;2023-08-24T07:56:00;13.10;;;11.90;;
8663;SDS011;4369;47.842;13.096;2023-08-24T07:58:27;12.53;;;11.23;;
8663;SDS011;4369;47.842;13.096;2023-08-24T08:00:56;12.03;;;10.93;;
8663;SDS011;4369;47.842;13.096;2023-08-24T08:03:24;13.02;;;11.88;;
8663;SDS011;4369;47.842;13.096;2023-08-24T08:05:51;17.02;;;12.55;;
8663;SDS011;4369;47.842;13.096;2023-08-24T08:08:18;13.65;;;11.43;;
8663;SDS011;4369;47.842;13.096;2023-08-24T08:10:45;12.77;;;11.68;;
8663;SDS011;4369;47.842;13.096;2023-08-24T08:13:12;13.67;;;11.77;;
8663;SDS011;4369;47.842;13.096;2023-08-24T08:15:39;13.85;;;12.38;;
8663;SDS011;4369;47.842;13.096;2023-08-24T08:18:06;12.57;;;11.38;;
8663;SDS011;4369;47.842;13.096;2023-08-24T08:20:34;12.63;;;11.43;;
8663;SDS011;4369;47.842;13.096;2023-08-24T08:23:01;12.32;;;11.20;;
8663;SDS011;4369;47.842;13.096;2023-08-24T08:25:28;12.52;;;11.25;;
8663;SDS011;4369;47.842;13.096;2023-08-24T08:27:55;12.35;;;11.07;;
8663;SDS011;4369;47.842;13.096;2023-08-24T08:30:22;12.43;;;11.13;;
8663;SDS011;4369;47.842;13.096;2023-08-24T08:32:49;14.43;;;12.60;;
8663;SDS011;4369;47.842;13.096;2023-08-24T08:35:18;12.63;;;11.32;;
8663;SDS011;4369;47.842;13.096;2023-08-24T08:37:46;13.18;;;11.88;;
8663;SDS011;4369;47.842;13.096;2023-08-24T08:40:14;12.30;;;11.10;;
8663;SDS011;4369;47.842;13.096;2023-08-24T08:42:41;13.63;;;12.07;;
8663;SDS011;4369;47.842;13.096;2023-08-24T08:45:09;13.63;;;12.32;;
8663;SDS011;4369;47.842;13.096;2023-08-24T08:47:38;15.20;;;12.57;;
8663;SDS011;4369;47.842;13.096;2023-08-24T08:50:06;12.52;;;11.43;;
8663;SDS011;4369;47.842;13.096;2023-08-24T08:52:34;14.02;;;12.43;;
8663;SDS011;4369;47.842;13.096;2023-08-24T08:55:02;13.48;;;12.10;;
8663;SDS011;4369;47.842;13.096;2023-08-24T08:57:31;13.25;;;11.93;;
8663;SDS011;4369;47.842;13.096;2023-08-24T08:59:59;20.13;;;12.20;;
8663;SDS011;4369;47.842;13.096;2023-08-24T09:02:26;15.45;;;11.98;;
8663;SDS011;4369;47.842;13.096;2023-08-24T09:04:56;13.60;;;12.40;;
8663;SDS011;4369;47.842;13.096;2023-08-24T09:07:23;17.50;;;12.38;;
8663;SDS011;4369;47.842;13.096;2023-08-24T09:09:51;14.23;;;12.07;;
8663;SDS011;4369;47.842;13.096;2023-08-24T09:12:19;13.77;;;12.48;;
8663;SDS011;4369;47.842;13.096;2023-08-24T09:14:46;13.95;;;12.52;;
8663;SDS011;4369;47.842;13.096;2023-08-24T09:17:19;14.43;;;11.88;;
8663;SDS011;4369;47.842;13.096;2023-08-24T09:19:47;13.48;;;11.15;;
8663;SDS011;4369;47.842;13.096;2023-08-24T09:22:16;13.50;;;11.20;;
8663;SDS011;4369;47.842;13.096;2023-08-24T09:24:43;12.70;;;10.38;;
8663;SDS011;4369;47.842;13.096;2023-08-24T09:27:14;13.88;;;12.05;;
8663;SDS011;4369;47.842;13.096;2023-08-24T09:29:42;11.93;;;10.73;;
8663;SDS011;4369;47.842;13.096;2023-08-24T09:32:13;14.48;;;11.38;;
8663;SDS011;4369;47.842;13.096;2023-08-24T09:34:40;12.38;;;11.05;;
8663;SDS011;4369;47.842;13.096;2023-08-24T09:37:12;14.48;;;11.40;;
8663;SDS011;4369;47.842;13.096;2023-08-24T09:39:40;11.70;;;10.63;;
8663;SDS011;4369;47.842;13.096;2023-08-24T09:42:07;12.80;;;11.52;;
8663;SDS011;4369;47.842;13.096;2023-08-24T09:44:34;12.63;;;10.70;;
8663;SDS011;4369;47.842;13.096;2023-08-24T09:47:02;11.70;;;10.68;;
8663;SDS011;4369;47.842;13.096;2023-08-24T09:49:36;11.93;;;10.88;;
8663;SDS011;4369;47.842;13.096;2023-08-24T09:52:03;13.15;;;11.85;;
8663;SDS011;4369;47.842;13.096;2023-08-24T09:54:35;12.00;;;10.80;;
8663;SDS011;4369;47.842;13.096;2023-08-24T09:57:04;11.35;;;10.35;;
8663;SDS011;4369;47.842;13.096;2023-08-24T09:59:34;11.50;;;10.30;;
8663;SDS011;4369;47.842;13.096;2023-08-24T10:02:05;12.05;;;10.95;;
8663;SDS011;4369;47.842;13.096;2023-08-24T10:04:41;12.48;;;10.95;;
8663;SDS011;4369;47.842;13.096;2023-08-24T10:07:10;11.77;;;10.57;;
8663;SDS011;4369;47.842;13.096;2023-08-24T10:09:43;11.85;;;10.65;;
8663;SDS011;4369;47.842;13.096;2023-08-24T10:12:12;12.88;;;10.70;;
8663;SDS011;4369;47.842;13.096;2023-08-24T10:14:41;14.00;;;11.10;;
8663;SDS011;4369;47.842;13.096;2023-08-24T10:17:14;12.27;;;11.00;;
8663;SDS011;4369;47.842;13.096;2023-08-24T10:19:42;11.27;;;10.18;;
8663;SDS011;4369;47.842;13.096;2023-08-24T10:22:09;11.38;;;10.18;;
8663;SDS011;4369;47.842;13.096;2023-08-24T10:24:37;11.40;;;10.27;;
8663;SDS011;4369;47.842;13.096;2023-08-24T10:27:05;11.18;;;10.07;;
8663;SDS011;4369;47.842;13.096;2023-08-24T10:29:36;11.70;;;10.57;;
8663;SDS011;4369;47.842;13.096;2023-08-24T10:32:02;12.10;;;11.00;;
8663;SDS011;4369;47.842;13.096;2023-08-24T10:34:32;10.90;;;9.90;;
8663;SDS011;4369;47.842;13.096;2023-08-24T10:37:06;12.38;;;11.07;;
8663;SDS011;4369;47.842;13.096;2023-08-24T10:39:34;11.77;;;10.65;;
8663;SDS011;4369;47.842;13.096;2023-08-24T10:42:03;11.90;;;10.80;;
8663;SDS011;4369;47.842;13.096;2023-08-24T10:44:35;12.15;;;10.88;;
8663;SDS011;4369;47.842;13.096;2023-08-24T10:47:05;11.18;;;10.18;;
8663;SDS011;4369;47.842;13.096;2023-08-24T10:49:34;11.73;;;10.52;;
8663;SDS011;4369;47.842;13.096;2023-08-24T10:52:16;11.93;;;10.68;;
8663;SDS011;4369;47.842;13.096;2023-08-24T10:54:43;11.00;;;10.02;;
8663;SDS011;4369;47.842;13.096;2023-08-24T10:57:23;11.65;;;10.65;;
8663;SDS011;4369;47.842;13.096;2023-08-24T10:59:59;10.82;;;9.88;;
8663;SDS011;4369;47.842;13.096;2023-08-24T11:02:30;12.05;;;10.95;;
8663;SDS011;4369;47.842;13.096;2023-08-24T11:05:14;11.00;;;10.10;;
8663;SDS011;4369;47.842;13.096;2023-08-24T11:07:48;11.45;;;10.20;;
8663;SDS011;4369;47.842;13.096;2023-08-24T11:10:20;11.82;;;10.63;;
8663;SDS011;4369;47.842;13.096;2023-08-24T11:13:07;11.68;;;10.52;;
8663;SDS011;4369;47.842;13.096;2023-08-24T11:15:37;11.68;;;10.55;;
8663;SDS011;4369;47.842;13.096;2023-08-24T11:18:14;11.68;;;10.57;;
8663;SDS011;4369;47.842;13.096;2023-08-24T11:20:52;11.68;;;10.57;;
8663;SDS011;4369;47.842;13.096;2023-08-24T11:23:20;11.10;;;10.00;;
8663;SDS011;4369;47.842;13.096;2023-08-24T11:25:48;12.50;;;10.60;;
8663;SDS011;4369;47.842;13.096;2023-08-24T11:28:20;14.55;;;11.02;;
8663;SDS011;4369;47.842;13.096;2023-08-24T11:30:47;11.20;;;10.15;;
8663;SDS011;4369;47.842;13.096;2023-08-24T11:33:16;12.40;;;10.57;;
8663;SDS011;4369;47.842;13.096;2023-08-24T11:35:44;10.55;;;9.65;;
8663;SDS011;4369;47.842;13.096;2023-08-24T11:38:13;9.77;;;8.88;;
8663;SDS011;4369;47.842;13.096;2023-08-24T11:40:40;9.98;;;9.07;;
8663;SDS011;4369;47.842;13.096;2023-08-24T11:43:07;10.45;;;9.13;;
8663;SDS011;4369;47.842;13.096;2023-08-24T11:45:35;10.25;;;9.35;;
8663;SDS011;4369;47.842;13.096;2023-08-24T11:48:05;9.77;;;8.82;;
8663;SDS011;4369;47.842;13.096;2023-08-24T11:50:33;11.40;;;9.25;;
8663;SDS011;4369;47.842;13.096;2023-08-24T11:53:01;9.85;;;9.00;;
8663;SDS011;4369;47.842;13.096;2023-08-24T11:55:29;9.52;;;8.68;;
8663;SDS011;4369;47.842;13.096;2023-08-24T11:57:56;9.05;;;8.32;;
8663;SDS011;4369;47.842;13.096;2023-08-24T12:00:23;9.95;;;8.18;;
8663;SDS011;4369;47.842;13.096;2023-08-24T12:02:50;9.40;;;8.50;;
8663;SDS011;4369;47.842;13.096;2023-08-24T12:05:21;9.20;;;8.02;;
8663;SDS011;4369;47.842;13.096;2023-08-24T12:07:49;9.55;;;8.40;;
8663;SDS011;4369;47.842;13.096;2023-08-24T12:10:18;9.10;;;7.68;;
8663;SDS011;4369;47.842;13.096;2023-08-24T12:12:46;9.32;;;8.43;;
8663;SDS011;4369;47.842;13.096;2023-08-24T12:15:17;8.52;;;7.60;;
8663;SDS011;4369;47.842;13.096;2023-08-24T12:17:45;8.90;;;7.10;;
8663;SDS011;4369;47.842;13.096;2023-08-24T12:20:17;8.10;;;7.30;;
8663;SDS011;4369;47.842;13.096;2023-08-24T12:22:50;12.32;;;6.68;;
8663;SDS011;4369;47.842;13.096;2023-08-24T12:25:18;9.68;;;7.00;;
8663;SDS011;4369;47.842;13.096;2023-08-24T12:27:49;10.13;;;7.20;;
8663;SDS011;4369;47.842;13.096;2023-08-24T12:30:17;9.98;;;7.05;;
8663;SDS011;4369;47.842;13.096;2023-08-24T12:32:44;7.15;;;6.50;;
8663;SDS011;4369;47.842;13.096;2023-08-24T12:35:13;7.22;;;6.53;;
8663;SDS011;4369;47.842;13.096;2023-08-24T12:37:41;10.93;;;6.50;;
8663;SDS011;4369;47.842;13.096;2023-08-24T12:40:08;9.73;;;6.53;;
8663;SDS011;4369;47.842;13.096;2023-08-24T12:42:36;7.43;;;6.22;;
8663;SDS011;4369;47.842;13.096;2023-08-24T12:45:04;10.18;;;6.78;;
8663;SDS011;4369;47.842;13.096;2023-08-24T12:47:33;8.40;;;6.93;;
8663;SDS011;4369;47.842;13.096;2023-08-24T12:50:03;7.93;;;6.80;;
8663;SDS011;4369;47.842;13.096;2023-08-24T12:52:31;11.82;;;6.85;;
8663;SDS011;4369;47.842;13.096;2023-08-24T12:54:59;9.52;;;6.65;;
8663;SDS011;4369;47.842;13.096;2023-08-24T12:57:25;11.10;;;6.50;;
8663;SDS011;4369;47.842;13.096;2023-08-24T12:59:52;9.73;;;6.28;;
8663;SDS011;4369;47.842;13.096;2023-08-24T13:02:21;10.52;;;6.22;;
8663;SDS011;4369;47.842;13.096;2023-08-24T13:04:48;9.90;;;6.50;;
8663;SDS011;4369;47.842;13.096;2023-08-24T13:07:14;8.25;;;6.45;;
8663;SDS011;4369;47.842;13.096;2023-08-24T13:09:41;9.43;;;5.78;;
8663;SDS011;4369;47.842;13.096;2023-08-24T13:12:08;8.60;;;5.43;;
8663;SDS011;4369;47.842;13.096;2023-08-24T13:14:35;8.48;;;5.50;;
8663;SDS011;4369;47.842;13.096;2023-08-24T13:17:02;8.60;;;5.20;;
8663;SDS011;4369;47.842;13.096;2023-08-24T13:19:30;8.57;;;5.47;;
8663;SDS011;4369;47.842;13.096;2023-08-24T13:21:57;5.78;;;5.28;;
8663;SDS011;4369;47.842;13.096;2023-08-24T13:24:24;10.38;;;4.80;;
8663;SDS011;4369;47.842;13.096;2023-08-24T13:26:51;8.82;;;5.43;;
8663;SDS011;4369;47.842;13.096;2023-08-24T13:29:18;7.28;;;4.82;;
8663;SDS011;4369;47.842;13.096;2023-08-24T13:31:44;8.00;;;5.28;;
8663;SDS011;4369;47.842;13.096;2023-08-24T13:34:11;6.65;;;4.80;;
8663;SDS011;4369;47.842;13.096;2023-08-24T13:36:40;11.20;;;5.32;;
8663;SDS011;4369;47.842;13.096;2023-08-24T13:39:06;9.00;;;5.05;;
8663;SDS011;4369;47.842;13.096;2023-08-24T13:41:33;9.45;;;5.40;;
8663;SDS011;4369;47.842;13.096;2023-08-24T13:44:00;8.15;;;5.45;;
8663;SDS011;4369;47.842;13.096;2023-08-24T13:46:27;6.82;;;6.05;;
8663;SDS011;4369;47.842;13.096;2023-08-24T13:48:54;7.13;;;6.10;;
8663;SDS011;4369;47.842;13.096;2023-08-24T13:51:21;9.43;;;6.22;;
8663;SDS011;4369;47.842;13.096;2023-08-24T13:53:49;8.25;;;5.93;;
8663;SDS011;4369;47.842;13.096;2023-08-24T13:56:16;8.93;;;6.63;;
8663;SDS011;4369;47.842;13.096;2023-08-24T13:58:43;8.23;;;6.10;;
8663;SDS011;4369;47.842;13.096;2023-08-24T14:01:10;7.05;;;6.35;;
8663;SDS011;4369;47.842;13.096;2023-08-24T14:03:37;10.10;;;7.00;;
8663;SDS011;4369;47.842;13.096;2023-08-24T14:06:05;8.30;;;6.43;;
8663;SDS011;4369;47.842;13.096;2023-08-24T14:08:32;8.73;;;6.43;;
8663;SDS011;4369;47.842;13.096;2023-08-24T14:11:00;10.23;;;6.20;;
8663;SDS011;4369;47.842;13.096;2023-08-24T14:13:27;7.75;;;6.65;;
8663;SDS011;4369;47.842;13.096;2023-08-24T14:15:54;7.75;;;6.10;;
8663;SDS011;4369;47.842;13.096;2023-08-24T14:18:21;6.68;;;6.15;;
8663;SDS011;4369;47.842;13.096;2023-08-24T14:20:48;6.90;;;6.30;;
8663;SDS011;4369;47.842;13.096;2023-08-24T14:23:15;11.73;;;7.25;;
8663;SDS011;4369;47.842;13.096;2023-08-24T14:25:42;9.23;;;6.20;;
8663;SDS011;4369;47.842;13.096;2023-08-24T14:28:10;8.52;;;7.22;;
8663;SDS011;4369;47.842;13.096;2023-08-24T14:30:38;9.07;;;7.22;;
8663;SDS011;4369;47.842;13.096;2023-08-24T14:33:05;8.88;;;7.15;;
8663;SDS011;4369;47.842;13.096;2023-08-24T14:35:32;8.05;;;6.75;;
8663;SDS011;4369;47.842;13.096;2023-08-24T14:37:59;7.60;;;6.90;;
8663;SDS011;4369;47.842;13.096;2023-08-24T14:40:25;7.78;;;7.13;;
8663;SDS011;4369;47.842;13.096;2023-08-24T14:42:52;9.80;;;7.45;;
8663;SDS011;4369;47.842;13.096;2023-08-24T14:45:21;7.90;;;7.18;;